Time;durP1;ratioP1;P1;durP2;ratioP2;P2;SDS_P1;SDS_P2;PMS_P1;PMS_P2;Temp;Humidity;BMP_temperature;BMP_pressure;BME280_temperature;BME280_humidity;BME280_pressure;Samples;Min_cycle;Max_cycle;Signal;HPM_P1;HPM_P2
2022/08/01 00:00:33;;;;;;;1.58;0.65;;;22.10;63.60;;;;;;4812135;29;20068;-74
2022/08/01 00:02:59;;;;;;;2.88;1.27;;;22.10;63.60;;;;;;4811395;29;20066;-75
2022/08/01 00:05:25;;;;;;;1.33;0.70;;;22.00;63.50;;;;;;4812814;29;20107;-74
2022/08/01 00:07:52;;;;;;;1.38;1.10;;;22.00;64.10;;;;;;4813139;29;20133;-74
2022/08/01 00:10:18;;;;;;;0.70;0.65;;;22.00;63.60;;;;;;4796450;29;20550;-74
2022/08/01 00:12:44;;;;;;;1.58;0.80;;;21.90;63.40;;;;;;4778615;29;20042;-74
2022/08/01 00:15:13;;;;;;;1.33;0.70;;;21.90;63.40;;;;;;4814001;29;20108;-74
2022/08/01 00:17:39;;;;;;;1.02;0.70;;;21.90;63.40;;;;;;4812845;29;20490;-74
2022/08/01 00:20:08;;;;;;;1.10;0.50;;;21.80;63.20;;;;;;4813372;29;20401;-74
2022/08/01 00:22:34;;;;;;;2.80;0.73;;;21.80;63.20;;;;;;4813582;29;20106;-74
2022/08/01 00:25:00;;;;;;;1.30;0.80;;;21.80;63.20;;;;;;4813576;29;20049;-74
2022/08/01 00:27:27;;;;;;;1.35;0.60;;;21.80;63.20;;;;;;4796556;29;20065;-75
2022/08/01 00:29:53;;;;;;;1.10;0.75;;;21.80;63.10;;;;;;4813871;29;20046;-74
2022/08/01 00:32:19;;;;;;;1.25;0.68;;;21.80;63.10;;;;;;4814724;29;20040;-74
2022/08/01 00:34:45;;;;;;;2.42;1.15;;;21.80;63.10;;;;;;4818606;29;20064;-74
2022/08/01 00:37:11;;;;;;;1.83;0.80;;;21.80;63.10;;;;;;4812087;29;20531;-75
2022/08/01 00:39:37;;;;;;;1.35;0.68;;;21.80;63.00;;;;;;4831223;29;20038;-76
2022/08/01 00:42:07;;;;;;;2.25;0.88;;;21.80;63.00;;;;;;4833850;29;20036;-75
2022/08/01 00:44:34;;;;;;;2.45;1.10;;;21.80;63.00;;;;;;4813784;29;20034;-75
2022/08/01 00:47:00;;;;;;;2.30;1.55;;;21.70;62.80;;;;;;4796320;29;20034;-75
2022/08/01 00:49:26;;;;;;;0.60;0.50;;;21.70;62.70;;;;;;4813823;29;20548;-75
2022/08/01 00:51:52;;;;;;;1.23;0.60;;;21.70;62.70;;;;;;4813431;29;20043;-75
2022/08/01 00:54:19;;;;;;;1.27;0.45;;;21.70;62.60;;;;;;4813181;29;20033;-75
2022/08/01 00:56:45;;;;;;;1.77;0.60;;;21.70;62.60;;;;;;4813009;29;20210;-74
2022/08/01 00:59:13;;;;;;;1.05;0.55;;;21.70;62.60;;;;;;4812997;29;20062;-73
2022/08/01 01:01:39;;;;;;;1.55;0.70;;;21.70;62.60;;;;;;4801349;29;20030;-74
2022/08/01 01:04:05;;;;;;;1.10;0.63;;;21.70;62.60;;;;;;4812371;29;20053;-74
2022/08/01 01:06:41;;;;;;;2.63;1.05;;;21.70;63.10;;;;;;4812947;29;20046;-75
2022/08/01 01:09:33;;;;;;;1.75;1.05;;;21.60;62.40;;;;;;4813446;29;20034;-74
2022/08/01 01:12:08;;;;;;;1.65;0.65;;;21.60;62.30;;;;;;4788573;29;20395;-74
2022/08/01 01:14:48;;;;;;;1.42;0.93;;;21.60;62.30;;;;;;4816272;29;20027;-74
2022/08/01 01:17:19;;;;;;;1.63;0.60;;;21.50;62.10;;;;;;4814125;29;20057;-74
2022/08/01 01:19:51;;;;;;;1.58;0.75;;;21.50;62.10;;;;;;4815807;29;20083;-73
2022/08/01 01:22:24;;;;;;;0.63;0.50;;;21.50;62.10;;;;;;4813810;29;20528;-74
2022/08/01 01:24:58;;;;;;;;;;;21.50;62.10;;;;;;4816658;29;20038;-74
2022/08/01 01:27:47;;;;;;;0.98;0.57;;;21.50;62.00;;;;;;4813937;29;20283;-75
2022/08/01 01:30:13;;;;;;;1.80;0.52;;;21.50;61.90;;;;;;4814985;29;20144;-74
2022/08/01 01:32:43;;;;;;;1.10;0.70;;;21.50;61.90;;;;;;4797509;29;20042;-74
2022/08/01 01:35:22;;;;;;;1.60;0.80;;;21.40;61.80;;;;;;4798764;29;20102;-74
2022/08/01 01:37:52;;;;;;;3.55;0.90;;;21.40;61.80;;;;;;4814432;29;20047;-75
2022/08/01 01:40:19;;;;;;;1.13;0.65;;;21.40;61.80;;;;;;4816284;29;20034;-74
2022/08/01 01:42:46;;;;;;;1.30;0.80;;;21.30;61.70;;;;;;4815043;29;20034;-74
2022/08/01 01:45:13;;;;;;;1.10;0.60;;;21.30;61.70;;;;;;4798559;29;20395;-74
2022/08/01 01:47:41;;;;;;;0.50;0.50;;;21.30;61.70;;;;;;4817821;29;20027;-74
2022/08/01 01:50:10;;;;;;;1.42;0.70;;;21.30;61.70;;;;;;4817982;29;20038;-74
2022/08/01 01:52:39;;;;;;;2.25;0.70;;;21.20;61.60;;;;;;4816442;29;20098;-75
2022/08/01 01:55:08;;;;;;;1.60;0.88;;;21.20;61.60;;;;;;4816611;29;20141;-74
2022/08/01 01:57:41;;;;;;;1.08;0.75;;;21.20;61.70;;;;;;4806384;29;20114;-74
2022/08/01 02:00:10;;;;;;;0.88;0.50;;;21.20;61.70;;;;;;4816567;29;20705;-74
2022/08/01 02:02:40;;;;;;;1.27;0.40;;;21.20;61.70;;;;;;4814736;29;20035;-75
2022/08/01 02:05:09;;;;;;;1.70;0.65;;;21.10;61.60;;;;;;4815784;29;20121;-74
2022/08/01 02:07:36;;;;;;;0.98;0.52;;;21.10;61.60;;;;;;4816653;29;20072;-74
2022/08/01 02:10:04;;;;;;;1.85;0.80;;;21.10;61.60;;;;;;4816559;29;20041;-74
2022/08/01 02:12:35;;;;;;;1.73;0.60;;;21.10;61.60;;;;;;4815095;29;20034;-74
2022/08/01 02:15:03;;;;;;;1.52;0.50;;;21.10;61.60;;;;;;4800217;29;20034;-74
2022/08/01 02:17:30;;;;;;;0.93;0.50;;;21.10;61.60;;;;;;4814767;29;20133;-74
2022/08/01 02:19:57;;;;;;;0.75;0.63;;;21.10;61.60;;;;;;4815543;29;20045;-74
2022/08/01 02:22:30;;;;;;;2.10;0.60;;;21.00;61.40;;;;;;4815474;29;20483;-74
2022/08/01 02:25:10;;;;;;;3.13;1.60;;;21.00;61.50;;;;;;4815340;29;20038;-74
2022/08/01 02:28:04;;;;;;;1.50;0.63;;;21.00;61.50;;;;;;4815264;29;20041;-74
2022/08/01 02:30:39;;;;;;;2.40;0.77;;;21.00;61.50;;;;;;4814634;29;20061;-74
2022/08/01 02:33:11;;;;;;;1.50;0.70;;;20.90;61.40;;;;;;4799621;29;20037;-74
2022/08/01 02:35:40;;;;;;;1.60;0.60;;;20.90;61.40;;;;;;4814553;29;20039;-74
2022/08/01 02:38:08;;;;;;;2.50;0.70;;;20.80;61.30;;;;;;4815959;29;20663;-73
2022/08/01 02:40:38;;;;;;;0.60;0.47;;;20.80;61.40;;;;;;4816035;29;20121;-74
2022/08/01 02:43:06;;;;;;;0.95;0.50;;;20.70;61.30;;;;;;4814101;29;20128;-73
2022/08/01 02:45:34;;;;;;;1.88;1.15;;;20.70;61.40;;;;;;4815802;29;20069;-75
2022/08/01 02:48:09;;;;;;;1.05;0.63;;;20.70;61.40;;;;;;4813841;29;20038;-74
2022/08/01 02:50:37;;;;;;;1.30;0.68;;;20.70;61.50;;;;;;4815629;29;20041;-74
2022/08/01 02:53:05;;;;;;;1.00;0.63;;;20.60;61.30;;;;;;4813715;29;20801;-74
2022/08/01 02:55:33;;;;;;;1.08;0.63;;;20.60;61.30;;;;;;4815957;29;20495;-73
2022/08/01 02:58:01;;;;;;;1.23;0.90;;;20.60;61.30;;;;;;4815364;29;20045;-74
2022/08/01 03:00:30;;;;;;;1.45;0.70;;;20.50;61.10;;;;;;4815433;29;20453;-74
2022/08/01 03:02:57;;;;;;;1.17;0.55;;;20.50;61.10;;;;;;4814030;29;20091;-74
2022/08/01 03:05:25;;;;;;;2.83;0.73;;;20.50;61.20;;;;;;4798909;29;20038;-74
2022/08/01 03:07:53;;;;;;;2.55;0.70;;;20.40;61.00;;;;;;4817039;29;20034;-74
2022/08/01 03:10:19;;;;;;;8.77;1.63;;;20.40;61.10;;;;;;4815920;29;20038;-74
2022/08/01 03:12:48;;;;;;;1.17;0.82;;;20.40;61.10;;;;;;4813751;29;20037;-74
2022/08/01 03:15:15;;;;;;;1.30;0.60;;;20.40;61.10;;;;;;4815441;29;20030;-74
2022/08/01 03:17:44;;;;;;;2.10;0.80;;;20.30;61.00;;;;;;4813674;29;20434;-74
2022/08/01 03:20:13;;;;;;;1.10;0.60;;;20.30;61.50;;;;;;4815176;29;20035;-74
2022/08/01 03:22:42;;;;;;;0.90;0.60;;;20.30;61.10;;;;;;4815061;29;20513;-74
2022/08/01 03:25:08;;;;;;;1.83;0.68;;;20.20;60.90;;;;;;4815259;29;20042;-74
2022/08/01 03:27:37;;;;;;;2.97;1.23;;;20.20;61.00;;;;;;4814473;29;20121;-74
2022/08/01 03:30:04;;;;;;;2.33;1.02;;;20.20;61.00;;;;;;4814663;29;20118;-74
2022/08/01 03:32:31;;;;;;;1.08;0.60;;;20.20;61.00;;;;;;4813910;29;20069;-74
2022/08/01 03:34:57;;;;;;;0.50;0.50;;;20.10;60.90;;;;;;4799703;29;20042;-74
2022/08/01 03:37:55;;;;;;;1.00;0.90;;;20.10;61.00;;;;;;4814592;29;20073;-74
2022/08/01 03:40:25;;;;;;;0.88;0.38;;;20.10;61.00;;;;;;4800620;29;20042;-74
2022/08/01 03:42:56;;;;;;;1.08;0.50;;;20.00;60.90;;;;;;4814271;29;20030;-74
2022/08/01 03:45:32;;;;;;;1.73;0.80;;;20.00;60.90;;;;;;4815298;29;20416;-74
2022/08/01 03:48:01;;;;;;;1.40;0.80;;;20.00;61.50;;;;;;4813894;29;20042;-74
2022/08/01 03:50:28;;;;;;;0.70;0.68;;;20.00;61.00;;;;;;4814628;29;20031;-74
2022/08/01 03:52:58;;;;;;;1.98;0.50;;;19.90;60.80;;;;;;4813667;29;20034;-74
2022/08/01 03:55:25;;;;;;;0.60;0.52;;;19.90;60.80;;;;;;4815406;29;20396;-74
2022/08/01 03:57:51;;;;;;;1.75;0.57;;;19.90;60.80;;;;;;4814346;29;20045;-74
2022/08/01 04:00:18;;;;;;;2.15;1.13;;;19.80;60.70;;;;;;4813203;29;20034;-74
2022/08/01 04:02:49;;;;;;;1.15;0.55;;;19.80;60.70;;;;;;4813066;29;20392;-74
2022/08/01 04:05:16;;;;;;;1.25;0.70;;;19.90;60.90;;;;;;4812933;29;20048;-74
2022/08/01 04:07:55;;;;;;;2.67;0.57;;;19.80;60.70;;;;;;4799445;29;20034;-74
2022/08/01 04:10:25;;;;;;;1.83;1.13;;;19.80;60.70;;;;;;4797394;29;20680;-75
2022/08/01 04:12:51;;;;;;;0.68;0.47;;;19.80;60.60;;;;;;4809457;29;20033;-74
2022/08/01 04:15:18;;;;;;;0.85;0.68;;;19.80;61.10;;;;;;4814917;29;20038;-74
2022/08/01 04:17:43;;;;;;;0.73;0.40;;;19.80;60.60;;;;;;4813498;29;20105;-74
2022/08/01 04:20:11;;;;;;;3.00;1.00;;;19.80;60.60;;;;;;4814368;29;20037;-74
2022/08/01 04:22:37;;;;;;;1.58;0.68;;;19.80;60.60;;;;;;4814165;29;20177;-74
2022/08/01 04:25:09;;;;;;;1.20;0.68;;;19.80;60.60;;;;;;4814610;29;20157;-73
2022/08/01 04:27:42;;;;;;;2.17;0.90;;;19.80;60.60;;;;;;4814633;29;20038;-74
2022/08/01 04:30:09;;;;;;;1.60;0.70;;;19.80;60.60;;;;;;4813963;29;20054;-73
2022/08/01 04:32:39;;;;;;;1.65;0.50;;;19.80;60.50;;;;;;4796740;29;20046;-74
2022/08/01 04:35:09;;;;;;;2.20;0.68;;;19.80;60.70;;;;;;4814532;29;20126;-74
2022/08/01 04:37:36;;;;;;;0.98;0.50;;;19.80;60.50;;;;;;4797228;29;20137;-74
2022/08/01 04:40:08;;;;;;;1.20;0.70;;;19.80;60.40;;;;;;4814131;29;20050;-75
2022/08/01 04:42:34;;;;;;;0.90;0.70;;;19.80;60.30;;;;;;4813719;29;20527;-74
2022/08/01 04:45:00;;;;;;;1.95;0.85;;;19.80;60.30;;;;;;4814090;29;20152;-75
2022/08/01 04:47:26;;;;;;;1.92;0.75;;;19.70;60.10;;;;;;4813530;29;20464;-75
2022/08/01 04:49:53;;;;;;;1.88;0.60;;;19.80;60.20;;;;;;4814762;29;20034;-74
2022/08/01 04:52:19;;;;;;;2.45;0.70;;;19.70;60.00;;;;;;4816443;29;20893;-74
2022/08/01 04:54:46;;;;;;;1.02;0.60;;;19.70;60.00;;;;;;4816262;29;20030;-75
2022/08/01 04:57:12;;;;;;;1.83;1.00;;;19.70;60.00;;;;;;4800620;29;20045;-75
2022/08/01 04:59:43;;;;;;;1.55;0.80;;;19.70;59.90;;;;;;4816487;29;20053;-75
2022/08/01 05:02:16;;;;;;;1.67;0.70;;;19.70;59.90;;;;;;4817388;29;20539;-74
2022/08/01 05:04:44;;;;;;;1.00;0.60;;;19.70;59.80;;;;;;4817910;29;20029;-74
2022/08/01 05:07:11;;;;;;;2.05;0.73;;;19.70;59.80;;;;;;4824366;29;20442;-75
2022/08/01 05:09:38;;;;;;;1.30;0.70;;;19.70;59.70;;;;;;4821649;29;20523;-75
2022/08/01 05:12:05;;;;;;;1.63;0.95;;;19.70;59.70;;;;;;4802043;29;20478;-74
2022/08/01 05:14:32;;;;;;;1.58;0.75;;;19.70;59.60;;;;;;4822323;29;20039;-74
2022/08/01 05:17:06;;;;;;;1.83;1.10;;;19.70;59.60;;;;;;4821143;29;20355;-75
2022/08/01 05:19:33;;;;;;;1.80;0.60;;;19.70;59.50;;;;;;4803566;29;20058;-74
2022/08/01 05:22:05;;;;;;;3.30;0.80;;;19.80;59.60;;;;;;4818861;29;20030;-74
2022/08/01 05:24:32;;;;;;;1.85;1.00;;;19.80;59.60;;;;;;4823047;29;20042;-76
2022/08/01 05:26:59;;;;;;;1.10;0.77;;;19.80;59.50;;;;;;4825823;29;20046;-76
2022/08/01 05:29:25;;;;;;;3.83;0.60;;;19.80;59.40;;;;;;4825580;29;20037;-76
2022/08/01 05:31:52;;;;;;;2.70;1.08;;;19.80;59.40;;;;;;4830567;29;20038;-76
2022/08/01 05:34:18;;;;;;;0.95;0.65;;;19.80;59.30;;;;;;4844692;29;20022;-75
2022/08/01 05:36:44;;;;;;;0.50;0.50;;;19.90;59.40;;;;;;4837136;29;20081;-75
2022/08/01 05:39:11;;;;;;;1.35;0.65;;;19.90;59.40;;;;;;4824187;29;20125;-75
2022/08/01 05:41:37;;;;;;;2.38;0.73;;;19.90;59.30;;;;;;4816786;29;20070;-75
2022/08/01 05:44:04;;;;;;;1.25;0.75;;;19.90;59.30;;;;;;4815772;29;20497;-75
2022/08/01 05:46:30;;;;;;;1.42;0.75;;;19.90;59.20;;;;;;4817595;29;20083;-75
2022/08/01 05:48:58;;;;;;;1.02;0.50;;;20.00;59.30;;;;;;4815429;29;20062;-73
2022/08/01 05:51:24;;;;;;;2.30;0.80;;;20.00;59.30;;;;;;4814868;29;20034;-77
2022/08/01 05:53:50;;;;;;;3.00;1.20;;;20.00;59.20;;;;;;4815163;29;20129;-83
2022/08/01 05:56:17;;;;;;;6.47;1.00;;;20.00;58.80;;;;;;4816611;29;20030;-80
2022/08/01 05:58:43;;;;;;;3.10;2.08;;;20.00;58.50;;;;;;4818038;29;20073;-80
2022/08/01 06:01:09;;;;;;;3.08;1.13;;;20.00;58.30;;;;;;4802318;29;20485;-81
2022/08/01 06:03:35;;;;;;;1.73;1.02;;;20.00;58.10;;;;;;4816035;29;20124;-81
2022/08/01 06:06:01;;;;;;;0.77;0.77;;;19.90;57.80;;;;;;4816467;29;20045;-81
2022/08/01 06:08:27;;;;;;;3.05;1.00;;;19.90;57.70;;;;;;4814945;29;20146;-81
2022/08/01 06:10:53;;;;;;;2.45;1.02;;;19.80;57.40;;;;;;4814183;29;20655;-79
2022/08/01 06:13:19;;;;;;;1.90;1.02;;;19.80;57.30;;;;;;4815769;29;20383;-82
2022/08/01 06:15:46;;;;;;;1.38;0.63;;;19.80;57.10;;;;;;4799083;29;20044;-80
2022/08/01 06:18:12;;;;;;;3.30;0.90;;;19.80;57.00;;;;;;4814893;29;20347;-78
2022/08/01 06:20:38;;;;;;;1.85;0.70;;;19.80;57.00;;;;;;4799354;29;20408;-78
2022/08/01 06:23:04;;;;;;;1.35;1.05;;;19.80;56.90;;;;;;4815064;29;20038;-79
2022/08/01 06:25:30;;;;;;;2.63;0.98;;;19.80;56.90;;;;;;4815635;29;20046;-85
2022/08/01 06:27:56;;;;;;;4.43;0.65;;;19.90;57.00;;;;;;4816539;29;20038;-80
2022/08/01 06:30:22;;;;;;;5.63;1.40;;;19.90;56.90;;;;;;4815364;29;20026;-80
2022/08/01 06:32:48;;;;;;;1.08;0.73;;;19.90;56.90;;;;;;4811089;29;20034;-81
2022/08/01 06:35:15;;;;;;;2.53;0.93;;;20.00;57.00;;;;;;4812081;29;20042;-80
2022/08/01 06:37:41;;;;;;;1.70;0.68;;;19.90;56.80;;;;;;4811057;29;20050;-79
2022/08/01 06:40:09;;;;;;;1.77;0.80;;;19.90;56.80;;;;;;4813926;29;20045;-80
2022/08/01 06:42:35;;;;;;;2.90;0.90;;;20.00;56.90;;;;;;4811987;29;20083;-79
2022/08/01 06:45:02;;;;;;;2.20;0.80;;;20.00;56.90;;;;;;4813125;29;20103;-80
2022/08/01 06:47:28;;;;;;;1.13;0.60;;;20.00;56.80;;;;;;4810372;29;20052;-80
2022/08/01 06:49:54;;;;;;;4.53;1.33;;;20.10;56.80;;;;;;4810850;29;20030;-77
2022/08/01 06:52:21;;;;;;;3.80;0.88;;;20.20;56.70;;;;;;4817463;29;20062;-77
2022/08/01 06:54:47;;;;;;;2.35;0.77;;;20.30;56.60;;;;;;4814187;29;20438;-77
2022/08/01 06:57:13;;;;;;;2.05;0.70;;;20.50;56.60;;;;;;4812022;29;20062;-81
2022/08/01 06:59:39;;;;;;;2.38;0.98;;;20.70;56.60;;;;;;4813100;29;20129;-80
2022/08/01 07:02:04;;;;;;;3.13;0.80;;;20.90;56.40;;;;;;4812313;29;20045;-80
2022/08/01 07:04:31;;;;;;;2.65;1.20;;;21.00;56.60;;;;;;4812882;29;20129;-80
2022/08/01 07:06:57;;;;;;;4.40;0.85;;;21.10;55.90;;;;;;4810918;29;20131;-80
2022/08/01 07:09:23;;;;;;;2.63;0.73;;;21.10;55.50;;;;;;4796376;29;20725;-80
2022/08/01 07:11:50;;;;;;;2.25;0.77;;;21.10;55.40;;;;;;4796719;29;20038;-80
2022/08/01 07:14:16;;;;;;;4.78;1.40;;;21.10;55.10;;;;;;4812869;29;20022;-80
2022/08/01 07:16:42;;;;;;;1.45;0.50;;;21.10;55.00;;;;;;4813261;29;20037;-80
2022/08/01 07:19:08;;;;;;;1.85;0.95;;;21.10;54.80;;;;;;4812226;29;20791;-81
2022/08/01 07:21:34;;;;;;;4.03;0.82;;;21.10;54.70;;;;;;4813185;29;20039;-80
2022/08/01 07:24:00;;;;;;;2.53;1.02;;;21.10;54.60;;;;;;4814329;29;20044;-82
2022/08/01 07:26:27;;;;;;;3.85;1.25;;;21.10;54.50;;;;;;4814220;29;20046;-78
2022/08/01 07:28:53;;;;;;;3.17;0.93;;;21.00;54.10;;;;;;4813683;29;20149;-79
2022/08/01 07:31:19;;;;;;;4.00;1.50;;;21.00;54.10;;;;;;4813854;29;20038;-82
2022/08/01 07:33:45;;;;;;;3.33;1.10;;;21.00;54.00;;;;;;4812277;29;20023;-80
2022/08/01 07:36:11;;;;;;;4.38;0.90;;;21.00;54.00;;;;;;4813234;29;20045;-81
2022/08/01 07:38:37;;;;;;;1.83;0.73;;;20.90;53.80;;;;;;4813355;29;20058;-81
2022/08/01 07:41:03;;;;;;;3.00;1.08;;;20.90;53.80;;;;;;4813423;29;20391;-82
2022/08/01 07:43:29;;;;;;;2.75;0.93;;;21.00;53.80;;;;;;4813676;29;20219;-82
2022/08/01 07:45:55;;;;;;;3.72;1.02;;;21.30;53.90;;;;;;4813523;29;20050;-81
2022/08/01 07:48:23;;;;;;;1.55;0.70;;;21.70;53.80;;;;;;4812716;29;20038;-82
2022/08/01 07:50:50;;;;;;;3.03;0.77;;;22.10;53.70;;;;;;4812118;29;20042;-81
2022/08/01 07:53:16;;;;;;;3.33;1.20;;;22.40;53.50;;;;;;4813282;29;20037;-80
2022/08/01 07:55:42;;;;;;;3.53;0.88;;;22.80;53.40;;;;;;4813282;29;20041;-81
2022/08/01 07:58:08;;;;;;;3.25;0.77;;;23.10;53.00;;;;;;4813833;29;20038;-81
2022/08/01 08:00:34;;;;;;;2.65;0.75;;;23.30;52.50;;;;;;4796713;29;20447;-81
2022/08/01 08:03:00;;;;;;;2.35;0.52;;;23.30;52.00;;;;;;4812049;29;20435;-86
2022/08/01 08:05:27;;;;;;;5.00;0.82;;;23.40;51.90;;;;;;4813183;29;20400;-81
2022/08/01 08:07:53;;;;;;;1.90;0.85;;;23.50;51.90;;;;;;4796623;29;20042;-81
2022/08/01 08:10:19;;;;;;;1.50;0.65;;;23.60;51.80;;;;;;4813387;29;20026;-80
2022/08/01 08:12:46;;;;;;;3.15;1.35;;;23.80;51.70;;;;;;4811925;29;20066;-78
2022/08/01 08:15:12;;;;;;;2.08;0.80;;;24.00;51.60;;;;;;4812247;29;20773;-78
2022/08/01 08:17:39;;;;;;;2.63;0.70;;;24.20;51.50;;;;;;4811759;29;20031;-78
2022/08/01 08:20:06;;;;;;;2.08;0.68;;;24.40;51.40;;;;;;4813672;29;20046;-77
2022/08/01 08:22:33;;;;;;;2.53;1.05;;;24.60;51.20;;;;;;4812185;29;20037;-76
2022/08/01 08:24:59;;;;;;;3.10;1.30;;;24.90;51.30;;;;;;4796966;29;20045;-76
2022/08/01 08:27:25;;;;;;;2.47;1.13;;;25.00;50.80;;;;;;4812960;29;20485;-76
2022/08/01 08:29:51;;;;;;;1.40;0.60;;;25.10;50.40;;;;;;4812593;29;20034;-77
2022/08/01 08:32:17;;;;;;;3.22;0.70;;;25.10;50.30;;;;;;4811569;29;20443;-78
2022/08/01 08:34:43;;;;;;;2.70;1.13;;;25.10;50.20;;;;;;4814319;29;20026;-77
2022/08/01 08:37:09;;;;;;;2.22;0.93;;;25.10;50.10;;;;;;4797243;29;20054;-81
2022/08/01 08:39:36;;;;;;;1.80;0.60;;;25.10;50.10;;;;;;4813658;29;20034;-80
2022/08/01 08:42:07;;;;;;;6.68;1.73;;;25.00;50.00;;;;;;4812484;29;20161;-78
2022/08/01 08:44:33;;;;;;;4.05;0.85;;;24.90;49.80;;;;;;4813964;29;20035;-77
2022/08/01 08:47:05;;;;;;;1.52;0.80;;;24.80;49.70;;;;;;4811960;29;20235;-79
2022/08/01 08:49:32;;;;;;;1.75;0.55;;;24.80;49.60;;;;;;4812734;29;20068;-78
2022/08/01 08:52:00;;;;;;;1.95;0.90;;;24.90;49.70;;;;;;4795247;29;20449;-80
2022/08/01 08:54:27;;;;;;;5.07;0.88;;;25.00;49.60;;;;;;4812477;29;20038;-79
2022/08/01 08:56:54;;;;;;;4.03;1.30;;;25.10;49.50;;;;;;4796202;29;20503;-80
2022/08/01 08:59:21;;;;;;;2.58;0.60;;;25.20;49.50;;;;;;4795906;29;20034;-77
2022/08/01 09:01:47;;;;;;;2.60;0.70;;;25.20;49.40;;;;;;4811646;29;20732;-77
2022/08/01 09:04:13;;;;;;;2.17;1.02;;;25.20;49.30;;;;;;4811554;29;20121;-77
2022/08/01 09:06:40;;;;;;;6.18;1.17;;;25.20;49.30;;;;;;4812799;29;20046;-77
2022/08/01 09:09:08;;;;;;;1.67;0.50;;;25.30;49.30;;;;;;4812467;29;20860;-77
2022/08/01 09:11:34;;;;;;;4.32;0.65;;;25.30;49.10;;;;;;4812039;29;20493;-77
2022/08/01 09:14:03;;;;;;;1.63;0.60;;;25.40;49.00;;;;;;4811912;29;20030;-78
2022/08/01 09:16:30;;;;;;;1.23;0.70;;;25.50;48.80;;;;;;4812617;29;20080;-77
2022/08/01 09:19:17;;;;;;;4.55;1.40;;;25.60;48.50;;;;;;4811336;29;20306;-77
2022/08/01 09:22:04;;;;;;;1.00;0.68;;;25.80;48.10;;;;;;4812389;29;20046;-77
2022/08/01 09:24:32;;;;;;;2.03;1.00;;;25.90;47.70;;;;;;4812178;29;20469;-76
2022/08/01 09:26:59;;;;;;;3.38;0.80;;;26.00;47.80;;;;;;4811299;29;20039;-79
2022/08/01 09:29:31;;;;;;;1.35;1.00;;;26.10;47.60;;;;;;4811629;29;20098;-80
2022/08/01 09:31:59;;;;;;;1.80;0.88;;;26.20;47.40;;;;;;4810952;29;20483;-80
2022/08/01 09:34:27;;;;;;;2.28;1.10;;;26.20;47.40;;;;;;4815593;29;20065;-80
2022/08/01 09:36:58;;;;;;;1.58;0.73;;;26.30;47.30;;;;;;4813865;29;20548;-80
2022/08/01 09:39:37;;;;;;;3.45;1.58;;;26.40;47.20;;;;;;4815411;29;20042;-80
2022/08/01 09:42:24;;;;;;;2.85;1.13;;;26.40;46.90;;;;;;4814220;29;20031;-79
2022/08/01 09:44:50;;;;;;;3.88;0.70;;;26.40;46.70;;;;;;4813642;29;20065;-81
2022/08/01 09:47:18;;;;;;;2.45;1.00;;;26.40;47.00;;;;;;4814624;29;20046;-80
2022/08/01 09:49:45;;;;;;;3.13;0.70;;;26.40;46.90;;;;;;4814226;29;20030;-82
2022/08/01 09:52:16;;;;;;;4.13;0.90;;;26.40;46.80;;;;;;4814981;29;20045;-80
2022/08/01 09:54:43;;;;;;;3.03;0.75;;;26.40;46.70;;;;;;4813272;29;20037;-79
2022/08/01 09:57:12;;;;;;;1.88;0.60;;;26.40;46.70;;;;;;4814812;29;20038;-78
2022/08/01 09:59:42;;;;;;;2.47;0.65;;;26.30;46.70;;;;;;4797216;29;20034;-77
2022/08/01 10:02:15;;;;;;;2.42;0.80;;;26.30;46.90;;;;;;4813537;29;20413;-77
2022/08/01 10:04:48;;;;;;;2.45;0.70;;;26.30;46.90;;;;;;4799661;29;20748;-77
2022/08/01 10:07:15;;;;;;;0.80;0.60;;;26.40;47.00;;;;;;4814109;29;20043;-77
2022/08/01 10:09:41;;;;;;;1.90;0.60;;;26.50;47.10;;;;;;4783697;29;20050;-77
2022/08/01 10:12:09;;;;;;;4.28;1.17;;;26.60;47.00;;;;;;4813988;29;20263;-80
2022/08/01 10:14:37;;;;;;;1.40;0.80;;;26.60;46.90;;;;;;4798887;29;20072;-79
2022/08/01 10:17:06;;;;;;;3.28;0.85;;;26.70;46.80;;;;;;4804994;29;20547;-81
2022/08/01 10:19:32;;;;;;;2.58;1.05;;;26.80;46.40;;;;;;4814603;29;20057;-78
2022/08/01 10:21:58;;;;;;;2.28;0.73;;;26.90;46.30;;;;;;4814324;29;20046;-77
2022/08/01 10:24:27;;;;;;;2.22;1.13;;;27.00;46.30;;;;;;4815450;29;20037;-80
2022/08/01 10:27:04;;;;;;;3.60;1.38;;;27.10;46.20;;;;;;4812350;29;20042;-79
2022/08/01 10:29:46;;;;;;;4.15;0.98;;;27.30;45.90;;;;;;4815208;29;20034;-79
2022/08/01 10:32:12;;;;;;;1.40;0.60;;;27.50;45.50;;;;;;4813768;29;20239;-80
2022/08/01 10:34:38;;;;;;;2.55;0.60;;;27.70;45.50;;;;;;4815339;29;20034;-80
2022/08/01 10:37:06;;;;;;;3.83;1.63;;;27.80;45.40;;;;;;4812662;29;20812;-79
2022/08/01 10:39:33;;;;;;;1.67;0.75;;;27.80;45.40;;;;;;4814822;29;20065;-80
2022/08/01 10:42:00;;;;;;;4.72;1.63;;;27.80;45.30;;;;;;4815950;29;20019;-79
2022/08/01 10:44:30;;;;;;;4.32;1.00;;;28.00;45.10;;;;;;4814429;29;20030;-80
2022/08/01 10:47:03;;;;;;;4.35;0.95;;;28.10;45.00;;;;;;4813132;29;20165;-80
2022/08/01 10:49:35;;;;;;;1.60;1.10;;;28.20;44.80;;;;;;4795860;29;20027;-80
2022/08/01 10:52:01;;;;;;;10.75;1.75;;;28.40;44.70;;;;;;4814475;29;20049;-80
2022/08/01 10:54:27;;;;;;;5.95;1.30;;;28.40;44.50;;;;;;4814813;29;20139;-81
2022/08/01 10:56:55;;;;;;;2.58;0.80;;;28.50;44.40;;;;;;4814008;29;20030;-80
2022/08/01 10:59:24;;;;;;;1.02;0.70;;;28.40;44.20;;;;;;4814463;29;20060;-80
2022/08/01 11:01:58;;;;;;;1.55;0.80;;;28.40;44.20;;;;;;4813289;29;20065;-80
2022/08/01 11:04:40;;;;;;;2.20;1.08;;;28.40;44.10;;;;;;4814862;29;20031;-80
2022/08/01 11:07:11;;;;;;;1.73;0.98;;;28.40;44.00;;;;;;4813975;29;20133;-80
2022/08/01 11:09:45;;;;;;;3.22;1.23;;;28.30;44.10;;;;;;4815227;29;20107;-80
2022/08/01 11:12:14;;;;;;;3.65;1.63;;;28.10;44.20;;;;;;4796592;29;20129;-79
2022/08/01 11:15:00;;;;;;;1.63;1.13;;;28.10;44.50;;;;;;4798416;29;20083;-81
2022/08/01 11:17:32;;;;;;;2.20;1.33;;;28.00;44.30;;;;;;4811623;29;20635;-78
2022/08/01 11:20:12;;;;;;;1.92;0.88;;;28.00;44.40;;;;;;4813139;29;20529;-78
2022/08/01 11:23:17;;;;;;;3.03;1.08;;;28.10;44.30;;;;;;4811778;29;20034;-77
2022/08/01 11:25:46;;;;;;;1.92;0.75;;;28.10;44.20;;;;;;4754988;30;20182;-77
2022/08/01 11:28:17;;;;;;;1.17;0.90;;;28.20;45.00;;;;;;4788552;29;20506;-77
2022/08/01 11:30:44;;;;;;;1.45;0.80;;;28.20;44.00;;;;;;4814505;29;20031;-80
2022/08/01 11:33:12;;;;;;;1.48;0.95;;;28.30;44.00;;;;;;4814409;29;20042;-80
2022/08/01 11:35:58;;;;;;;1.90;0.85;;;28.30;43.80;;;;;;4814892;29;20603;-80
2022/08/01 11:38:30;;;;;;;1.65;0.77;;;28.40;43.80;;;;;;4812981;29;20042;-80
2022/08/01 11:41:17;;;;;;;1.20;0.70;;;28.40;43.50;;;;;;4813751;29;20121;-80
2022/08/01 11:43:58;;;;;;;2.25;0.80;;;28.50;43.20;;;;;;4810785;29;20049;-78
2022/08/01 11:46:45;;;;;;;2.60;1.05;;;28.50;43.10;;;;;;4812540;29;20049;-78
2022/08/01 11:49:36;;;;;;;1.33;0.70;;;28.50;43.00;;;;;;4814199;29;20034;-78
2022/08/01 11:52:06;;;;;;;2.15;0.70;;;28.60;43.00;;;;;;4813522;29;20031;-80
2022/08/01 11:54:40;;;;;;;0.80;0.80;;;28.60;43.10;;;;;;4797361;29;20102;-79
2022/08/01 11:57:13;;;;;;;2.30;1.25;;;28.60;42.90;;;;;;4813049;29;20417;-80
2022/08/01 11:59:47;;;;;;;1.42;0.85;;;28.70;42.80;;;;;;4811192;29;20450;-80
2022/08/01 12:02:22;;;;;;;1.17;0.70;;;28.70;42.80;;;;;;4811884;29;20026;-80
2022/08/01 12:04:56;;;;;;;1.00;0.80;;;28.70;42.60;;;;;;4814041;29;20537;-79
2022/08/01 12:07:23;;;;;;;1.60;0.73;;;28.80;42.70;;;;;;4813958;29;20417;-80
2022/08/01 12:10:04;;;;;;;1.60;0.52;;;28.80;42.60;;;;;;4812617;29;20023;-80
2022/08/01 12:12:34;;;;;;;2.65;0.98;;;28.90;42.40;;;;;;4811204;29;20072;-79
2022/08/01 12:15:06;;;;;;;1.80;1.08;;;29.00;42.50;;;;;;4797436;29;20099;-79
2022/08/01 12:17:40;;;;;;;0.90;0.60;;;29.10;42.50;;;;;;4812446;29;20131;-80
2022/08/01 12:20:09;;;;;;;0.60;0.57;;;29.30;42.30;;;;;;4813360;29;20034;-80
2022/08/01 12:22:35;;;;;;;2.13;0.68;;;29.30;42.30;;;;;;4813331;29;20038;-80
2022/08/01 12:25:11;;;;;;;1.40;1.00;;;29.40;42.20;;;;;;4813449;29;20030;-83
2022/08/01 12:27:39;;;;;;;1.38;0.60;;;29.40;42.00;;;;;;4811913;29;20066;-80
2022/08/01 12:30:09;;;;;;;0.63;0.57;;;29.60;42.10;;;;;;4813007;29;20090;-80
2022/08/01 12:32:38;;;;;;;1.25;0.60;;;29.70;41.90;;;;;;4811871;29;20040;-81
2022/08/01 12:35:10;;;;;;;1.65;1.00;;;29.80;41.80;;;;;;4813576;29;20134;-81
2022/08/01 12:37:45;;;;;;;0.75;0.47;;;29.80;41.70;;;;;;4796530;29;20050;-81
2022/08/01 12:40:21;;;;;;;0.60;0.52;;;29.80;41.60;;;;;;4796617;29;20034;-80
2022/08/01 12:42:49;;;;;;;1.15;0.50;;;29.80;41.40;;;;;;4795289;29;20125;-80
2022/08/01 12:45:20;;;;;;;0.85;0.55;;;29.90;41.40;;;;;;4796571;29;20295;-80
2022/08/01 12:47:47;;;;;;;1.35;0.50;;;30.00;41.30;;;;;;4813346;29;20042;-80
2022/08/01 12:50:17;;;;;;;1.40;0.52;;;30.00;41.10;;;;;;4812302;29;20026;-78
2022/08/01 12:52:43;;;;;;;0.38;0.38;;;30.10;41.10;;;;;;4811543;29;20026;-78
2022/08/01 12:55:21;;;;;;;2.92;0.70;;;30.00;41.10;;;;;;4813760;29;20034;-80
2022/08/01 12:57:52;;;;;;;0.77;0.68;;;30.10;41.00;;;;;;4811032;29;20038;-80